Time;durP1;ratioP1;P1;durP2;ratioP2;P2;SDS_P1;SDS_P2;PMS_P1;PMS_P2;Temp;Humidity;BMP_temperature;BMP_pressure;BME280_temperature;BME280_humidity;BME280_pressure;Samples;Min_cycle;Max_cycle;Signal;HPM_P1;HPM_P2
2023/01/05 00:01:38;;;;;;;1.30;1.20;;;12.00;97.30;;;;;;4974902;28;20464;-85
2023/01/05 00:04:05;;;;;;;1.13;1.03;;;12.00;97.30;;;;;;4975372;28;20304;-85
2023/01/05 00:06:31;;;;;;;8.17;1.30;;;12.00;97.30;;;;;;4974458;28;20444;-85
2023/01/05 00:08:58;;;;;;;1.10;1.00;;;12.00;97.30;;;;;;4975087;28;20695;-85
2023/01/05 00:22:48;;;;;;;1.30;1.20;;;12.00;97.30;;;;;;4975657;28;20540;-85
2023/01/05 00:25:23;;;;;;;2.47;1.93;;;12.00;97.30;;;;;;4974557;28;20418;-86
2023/01/05 00:27:50;;;;;;;1.27;1.17;;;12.00;97.30;;;;;;4974608;28;20868;-85
2023/01/05 00:30:21;;;;;;;1.53;1.43;;;12.00;97.30;;;;;;4974376;28;20465;-85
2023/01/05 00:32:47;;;;;;;0.90;0.80;;;11.90;97.30;;;;;;4975226;28;20426;-84
2023/01/05 00:35:14;;;;;;;1.00;0.90;;;11.90;97.30;;;;;;4974594;28;20477;-86
2023/01/05 00:37:40;;;;;;;1.90;1.80;;;11.90;97.30;;;;;;4974502;28;20186;-84
2023/01/05 00:40:08;;;;;;;0.70;0.70;;;11.80;97.30;;;;;;4974491;28;20446;-85
2023/01/05 00:42:34;;;;;;;3.80;1.63;;;11.80;97.30;;;;;;4974572;28;20453;-84
2023/01/05 00:44:59;;;;;;;0.90;0.80;;;11.80;97.30;;;;;;4974521;28;20625;-85
2023/01/05 00:47:25;;;;;;;7.20;1.10;;;11.70;97.30;;;;;;4974470;28;20694;-84
2023/01/05 00:49:50;;;;;;;1.23;1.13;;;11.70;97.30;;;;;;4974424;28;20206;-86
2023/01/05 00:52:16;;;;;;;0.80;0.80;;;11.70;97.30;;;;;;4974382;28;20308;-85
2023/01/05 00:54:41;;;;;;;1.63;1.63;;;11.60;97.30;;;;;;4974157;28;20541;-86
2023/01/05 00:57:10;;;;;;;1.00;0.90;;;11.60;97.30;;;;;;4974375;28;20280;-85
2023/01/05 00:59:36;;;;;;;4.93;1.80;;;11.50;97.30;;;;;;4973789;28;20249;-85
2023/01/05 01:02:01;;;;;;;1.00;0.90;;;11.50;97.30;;;;;;4974154;28;20426;-85
2023/01/05 01:04:28;;;;;;;1.43;1.23;;;11.50;97.30;;;;;;4973799;28;20210;-86
2023/01/05 01:06:54;;;;;;;1.00;1.00;;;11.50;97.30;;;;;;4974029;28;20182;-84
2023/01/05 01:09:19;;;;;;;3.17;0.90;;;11.50;97.30;;;;;;4974153;28;20456;-85
2023/01/05 01:11:46;;;;;;;3.30;1.23;;;11.50;97.30;;;;;;4974066;28;20178;-84
2023/01/05 01:14:12;;;;;;;1.90;1.37;;;11.50;97.30;;;;;;4975325;28;20193;-84
2023/01/05 01:16:40;;;;;;;1.73;1.63;;;11.50;97.30;;;;;;4973589;28;20509;-86
2023/01/05 01:19:06;;;;;;;3.07;2.40;;;11.50;97.30;;;;;;4974007;28;21023;-87
2023/01/05 01:21:31;;;;;;;0.90;0.80;;;11.50;97.30;;;;;;4973533;28;20469;-86
2023/01/05 01:23:57;;;;;;;0.90;0.80;;;11.50;97.30;;;;;;4973859;28;20214;-86
2023/01/05 01:26:22;;;;;;;1.43;1.30;;;11.50;97.30;;;;;;4973747;28;20174;-85
2023/01/05 01:28:48;;;;;;;1.20;1.10;;;11.50;97.30;;;;;;4974499;28;20614;-85
2023/01/05 01:31:13;;;;;;;1.60;1.37;;;11.50;97.30;;;;;;4974041;28;20181;-86
2023/01/05 01:33:39;;;;;;;1.10;1.00;;;11.40;97.30;;;;;;4986270;28;20198;-85
2023/01/05 01:36:07;;;;;;;1.17;1.07;;;11.40;97.30;;;;;;4974740;28;20178;-85
2023/01/05 01:38:32;;;;;;;3.47;1.97;;;11.40;97.30;;;;;;4973807;28;20926;-85
2023/01/05 01:40:58;;;;;;;1.00;0.90;;;11.40;97.30;;;;;;4972976;28;21072;-84
2023/01/05 01:43:47;;;;;;;1.20;1.10;;;11.40;97.30;;;;;;4973208;28;20213;-85
2023/01/05 01:46:15;;;;;;;0.90;0.80;;;11.40;97.30;;;;;;4972861;28;20202;-84
2023/01/05 01:49:03;;;;;;;1.07;0.97;;;11.40;97.30;;;;;;4972556;28;20410;-85
2023/01/05 01:51:36;;;;;;;4.30;1.20;;;11.30;97.30;;;;;;4972487;28;20505;-84
2023/01/05 01:54:05;;;;;;;5.13;1.83;;;11.30;97.30;;;;;;4972589;28;20464;-85
2023/01/05 01:56:37;;;;;;;1.00;0.90;;;11.30;97.30;;;;;;4973267;28;20432;-84
2023/01/05 01:59:04;;;;;;;1.00;1.00;;;11.20;97.30;;;;;;4974106;28;20441;-85
2023/01/05 02:01:30;;;;;;;1.00;0.90;;;11.20;97.30;;;;;;4972774;28;20452;-85
2023/01/05 02:03:55;;;;;;;1.00;0.90;;;11.20;97.30;;;;;;4972845;28;20516;-85
2023/01/05 02:06:22;;;;;;;4.00;2.50;;;11.10;97.30;;;;;;4973869;28;20421;-85
2023/01/05 02:08:48;;;;;;;2.37;1.13;;;11.10;97.30;;;;;;4972581;28;20207;-85
2023/01/05 02:11:36;;;;;;;0.90;0.80;;;11.00;97.30;;;;;;4972735;28;20422;-86
2023/01/05 02:14:34;;;;;;;1.20;1.10;;;11.00;97.30;;;;;;4972949;28;20437;-86
2023/01/05 02:17:32;;;;;;;3.23;2.23;;;11.00;97.30;;;;;;4972162;28;20421;-86
2023/01/05 02:20:25;;;;;;;1.23;1.13;;;11.00;97.30;;;;;;4930104;28;20473;-86
2023/01/05 02:23:15;;;;;;;2.00;1.10;;;11.00;97.30;;;;;;4973047;28;20469;-84
2023/01/05 02:25:43;;;;;;;1.20;0.90;;;11.00;97.30;;;;;;4973625;28;20815;-86
2023/01/05 02:28:41;;;;;;;1.00;0.90;;;11.00;97.30;;;;;;4973534;28;20921;-86
2023/01/05 02:31:16;;;;;;;1.77;1.67;;;11.00;97.30;;;;;;4957806;28;20857;-84
2023/01/05 02:34:13;;;;;;;1.20;1.10;;;11.00;97.30;;;;;;4972203;28;20429;-85
2023/01/05 02:37:03;;;;;;;1.00;0.90;;;11.00;97.30;;;;;;4991633;28;20650;-86
2023/01/05 02:39:40;;;;;;;2.73;1.33;;;11.10;97.30;;;;;;4981328;28;20797;-84
2023/01/05 02:42:17;;;;;;;7.57;4.73;;;11.10;97.30;;;;;;4970994;28;20452;-86
2023/01/05 02:44:43;;;;;;;1.00;0.90;;;11.10;97.30;;;;;;4970547;28;20539;-84
2023/01/05 02:47:24;;;;;;;45.70;2.17;;;11.10;97.30;;;;;;4970845;28;20729;-85
2023/01/05 02:49:53;;;;;;;1.20;1.10;;;11.10;97.30;;;;;;4970537;28;20437;-87
2023/01/05 02:52:20;;;;;;;7.37;1.87;;;11.10;97.30;;;;;;4971055;28;20900;-85
2023/01/05 02:54:57;;;;;;;2.90;1.37;;;11.20;97.30;;;;;;4973351;28;21009;-85
2023/01/05 02:57:51;;;;;;;0.90;0.80;;;11.20;97.30;;;;;;4965617;28;20855;-85
2023/01/05 03:00:34;;;;;;;1.10;1.00;;;11.20;97.30;;;;;;4970337;28;20482;-84
2023/01/05 03:03:21;;;;;;;1.97;1.73;;;11.20;97.30;;;;;;4971801;28;20456;-85
2023/01/05 03:06:21;;;;;;;1.00;0.90;;;11.20;97.30;;;;;;4970920;28;20425;-84
2023/01/05 03:08:51;;;;;;;2.67;1.20;;;11.10;97.30;;;;;;4960978;28;20438;-85
2023/01/05 03:14:26;;;;;;;34.67;3.77;;;11.20;97.30;;;;;;4971973;28;20412;-85
2023/01/05 03:16:54;;;;;;;1.00;0.90;;;11.10;97.30;;;;;;4972461;28;20506;-86
2023/01/05 03:19:38;;;;;;;5.50;2.40;;;11.00;97.30;;;;;;4972437;28;20529;-84
2023/01/05 03:36:22;;;;;;;2.07;1.93;;;10.70;97.30;;;;;;4978371;28;20504;-85
2023/01/05 03:38:51;;;;;;;1.10;1.00;;;10.70;97.30;;;;;;4977624;28;20435;-84
2023/01/05 03:41:18;;;;;;;5.83;2.30;;;10.70;97.30;;;;;;4976700;28;20913;-86
2023/01/05 03:43:46;;;;;;;1.00;0.90;;;10.70;97.30;;;;;;4976483;28;20568;-86
2023/01/05 03:46:18;;;;;;;28.07;1.33;;;10.70;97.30;;;;;;4977822;28;20414;-85
2023/01/05 03:48:44;;;;;;;2.20;1.73;;;10.70;97.30;;;;;;4976358;28;20414;-84
2023/01/05 03:51:10;;;;;;;6.77;1.23;;;10.80;97.30;;;;;;4976323;28;20418;-86
2023/01/05 03:53:35;;;;;;;1.77;1.67;;;10.80;97.30;;;;;;4976435;28;20533;-86
2023/01/05 03:56:01;;;;;;;0.90;0.80;;;10.80;97.30;;;;;;4976624;28;20241;-85
2023/01/05 03:58:26;;;;;;;0.90;0.80;;;10.80;97.30;;;;;;4976810;28;20241;-85
2023/01/05 04:00:52;;;;;;;1.27;1.17;;;10.90;97.30;;;;;;5025504;22;20233;-88
2023/01/05 04:03:17;;;;;;;1.00;0.90;;;10.80;97.30;;;;;;4987082;28;20566;-84
2023/01/05 04:05:43;;;;;;;2.00;1.10;;;10.90;97.30;;;;;;4976206;28;20174;-88
2023/01/05 04:08:08;;;;;;;6.73;2.00;;;10.90;97.30;;;;;;4976199;28;20182;-89
2023/01/05 04:10:34;;;;;;;1.70;1.60;;;10.90;97.30;;;;;;4985215;28;20383;-87
2023/01/05 04:12:59;;;;;;;1.37;1.27;;;10.90;97.30;;;;;;4981703;28;20676;-85
2023/01/05 04:15:25;;;;;;;1.00;0.90;;;10.90;97.30;;;;;;4986645;28;20313;-87
2023/01/05 04:17:50;;;;;;;2.50;2.07;;;10.90;97.30;;;;;;4985197;28;20180;-87
2023/01/05 04:20:16;;;;;;;1.70;1.03;;;10.90;97.30;;;;;;4996776;28;20563;-87
2023/01/05 04:22:41;;;;;;;1.43;1.37;;;10.80;97.30;;;;;;4995635;28;20189;-86
2023/01/05 04:25:08;;;;;;;2.80;1.93;;;10.80;97.30;;;;;;4995492;28;20201;-86
2023/01/05 04:27:33;;;;;;;3.37;2.00;;;10.80;97.30;;;;;;4995986;28;20199;-86
2023/01/05 04:29:59;;;;;;;2.87;2.40;;;10.80;97.30;;;;;;4995640;28;20931;-87
2023/01/05 04:32:24;;;;;;;8.10;1.60;;;10.80;97.30;;;;;;4995696;28;20178;-88
2023/01/05 04:34:50;;;;;;;3.20;2.43;;;10.70;97.30;;;;;;4988238;28;20178;-87
2023/01/05 04:37:15;;;;;;;1.93;1.83;;;10.70;97.30;;;;;;4976370;28;20269;-87
2023/01/05 04:39:41;;;;;;;2.63;1.37;;;10.60;97.30;;;;;;4972784;28;20550;-87
2023/01/05 04:42:06;;;;;;;1.30;1.20;;;10.60;97.30;;;;;;4973394;28;20696;-86
2023/01/05 04:44:32;;;;;;;1.13;1.03;;;10.60;97.30;;;;;;4973254;28;20206;-86
2023/01/05 04:46:57;;;;;;;1.40;1.30;;;10.60;97.30;;;;;;4973334;28;20197;-87
2023/01/05 04:49:23;;;;;;;1.00;0.90;;;10.60;97.30;;;;;;4973207;28;20633;-87
2023/01/05 04:51:48;;;;;;;13.63;2.20;;;10.60;97.30;;;;;;4974406;28;20661;-85
2023/01/05 04:54:13;;;;;;;4.20;1.13;;;10.50;97.30;;;;;;4972851;28;20190;-89
2023/01/05 04:56:39;;;;;;;1.30;1.20;;;10.60;97.30;;;;;;4974312;28;20253;-86
2023/01/05 04:59:04;;;;;;;1.10;1.00;;;10.50;97.30;;;;;;4974260;28;20186;-86
2023/01/05 05:01:30;;;;;;;2.00;1.87;;;10.50;97.30;;;;;;4972813;28;20720;-88
2023/01/05 05:03:55;;;;;;;1.63;1.63;;;10.50;97.30;;;;;;4973912;28;20256;-85
2023/01/05 05:06:21;;;;;;;0.93;0.83;;;10.50;97.30;;;;;;4972944;28;20182;-87
2023/01/05 05:08:46;;;;;;;5.40;2.90;;;10.50;97.30;;;;;;4972830;28;20236;-88
2023/01/05 05:11:12;;;;;;;1.90;1.80;;;10.50;97.30;;;;;;4972948;28;20265;-86
2023/01/05 05:13:37;;;;;;;5.60;1.63;;;10.50;97.30;;;;;;4972713;28;20197;-87
2023/01/05 05:16:03;;;;;;;1.20;1.10;;;10.60;97.30;;;;;;4991451;28;20198;-90
2023/01/05 05:18:28;;;;;;;1.83;1.43;;;10.60;97.30;;;;;;4992678;28;20446;-90
2023/01/05 05:20:54;;;;;;;3.23;3.03;;;10.70;97.30;;;;;;4988307;28;20218;-86
2023/01/05 05:23:20;;;;;;;1.27;1.23;;;10.70;97.30;;;;;;4972248;28;20700;-87
2023/01/05 05:25:49;;;;;;;3.80;3.23;;;10.70;97.30;;;;;;4987605;28;20178;-88
2023/01/05 05:28:14;;;;;;;1.20;1.10;;;10.70;97.30;;;;;;4991423;28;20425;-87
2023/01/05 05:30:40;;;;;;;26.77;1.77;;;10.70;97.30;;;;;;4991610;28;20433;-87
2023/01/05 05:33:05;;;;;;;3.40;1.27;;;10.70;97.30;;;;;;4991652;28;20667;-88
2023/01/05 05:35:31;;;;;;;1.93;1.83;;;10.80;97.30;;;;;;4978749;28;20183;-87
2023/01/05 05:37:56;;;;;;;1.63;1.47;;;10.80;97.30;;;;;;4972281;28;20182;-87
2023/01/05 05:40:22;;;;;;;1.10;1.00;;;10.80;97.30;;;;;;4972075;28;20210;-87
2023/01/05 05:42:47;;;;;;;2.20;1.53;;;10.80;97.30;;;;;;4972504;28;20262;-86
2023/01/05 05:45:13;;;;;;;1.00;0.90;;;10.80;97.30;;;;;;4972553;28;20270;-87
2023/01/05 05:47:38;;;;;;;0.90;0.80;;;10.70;97.30;;;;;;4972150;28;20185;-86
2023/01/05 05:50:05;;;;;;;1.87;1.83;;;10.70;97.30;;;;;;4972834;28;20194;-87
2023/01/05 05:52:30;;;;;;;1.57;1.47;;;10.70;97.30;;;;;;4972160;28;20179;-86
2023/01/05 05:54:56;;;;;;;1.90;1.80;;;10.70;97.30;;;;;;4971826;28;20984;-88
2023/01/05 05:57:21;;;;;;;7.50;1.50;;;10.70;97.30;;;;;;4971836;28;20194;-86
2023/01/05 05:59:46;;;;;;;10.33;1.83;;;10.70;97.30;;;;;;4971300;28;20195;-86
2023/01/05 06:02:12;;;;;;;11.30;1.50;;;10.70;97.30;;;;;;4971813;28;20189;-87
2023/01/05 06:04:37;;;;;;;1.27;1.20;;;10.70;97.30;;;;;;4971413;28;20214;-87
2023/01/05 06:07:03;;;;;;;1.50;1.40;;;10.70;97.30;;;;;;4971672;28;20266;-86
2023/01/05 06:09:28;;;;;;;3.70;1.60;;;10.70;97.30;;;;;;4972015;28;20174;-89
2023/01/05 06:11:54;;;;;;;2.50;1.73;;;10.60;97.30;;;;;;4971524;28;20581;-87
2023/01/05 06:14:19;;;;;;;1.47;1.10;;;10.60;97.30;;;;;;4971741;28;20702;-86
2023/01/05 06:16:45;;;;;;;1.17;1.10;;;10.60;97.30;;;;;;4971653;28;20182;-87
2023/01/05 06:19:10;;;;;;;1.27;1.00;;;10.60;97.30;;;;;;4971646;28;20186;-87
2023/01/05 06:21:36;;;;;;;1.17;1.00;;;10.60;97.30;;;;;;4971506;28;20621;-87
2023/01/05 06:24:02;;;;;;;1.63;1.50;;;10.50;97.30;;;;;;4971759;28;20220;-86
2023/01/05 06:26:27;;;;;;;8.43;1.43;;;10.50;97.30;;;;;;4971465;28;20182;-86
2023/01/05 06:28:53;;;;;;;1.00;0.90;;;10.50;97.30;;;;;;4971695;28;20269;-87
2023/01/05 06:31:18;;;;;;;1.13;1.03;;;10.50;97.30;;;;;;4971457;28;20285;-86
2023/01/05 06:33:44;;;;;;;0.70;0.70;;;10.40;97.30;;;;;;4971131;28;20183;-87
2023/01/05 06:36:09;;;;;;;1.10;1.00;;;10.40;97.30;;;;;;4989155;28;20267;-86
2023/01/05 06:38:35;;;;;;;0.90;0.80;;;10.40;97.30;;;;;;4990855;28;20429;-86
2023/01/05 06:41:00;;;;;;;1.30;1.20;;;10.40;97.30;;;;;;4990380;28;20264;-87
2023/01/05 06:43:26;;;;;;;20.13;1.50;;;10.40;97.30;;;;;;4989708;28;20197;-86
2023/01/05 06:45:51;;;;;;;5.47;1.67;;;10.40;97.30;;;;;;4989595;28;20641;-87
2023/01/05 06:48:17;;;;;;;1.83;1.73;;;10.40;97.30;;;;;;4989844;28;20205;-87
2023/01/05 06:50:42;;;;;;;2.40;1.43;;;10.40;97.30;;;;;;4991442;28;20198;-86
2023/01/05 06:53:08;;;;;;;1.20;1.10;;;10.40;97.30;;;;;;4990317;28;20178;-84
2023/01/05 06:55:34;;;;;;;1.30;1.20;;;10.40;97.30;;;;;;4990252;28;20232;-87
2023/01/05 06:57:59;;;;;;;1.50;1.07;;;10.40;97.30;;;;;;4990596;28;20243;-88
2023/01/05 07:00:24;;;;;;;1.30;1.20;;;10.40;97.30;;;;;;4989797;28;20222;-87
2023/01/05 07:02:50;;;;;;;1.30;1.20;;;10.40;97.30;;;;;;4984254;28;20676;-88
2023/01/05 07:05:16;;;;;;;1.10;1.00;;;10.40;97.30;;;;;;4978671;28;20181;-87
2023/01/05 07:07:41;;;;;;;1.60;1.50;;;10.40;97.30;;;;;;4983427;28;20203;-87
2023/01/05 07:10:07;;;;;;;9.10;1.63;;;10.40;97.30;;;;;;4984786;28;21051;-87
2023/01/05 07:12:33;;;;;;;1.83;1.27;;;10.40;97.30;;;;;;4989292;28;20200;-88
2023/01/05 07:14:58;;;;;;;7.03;1.10;;;10.40;97.30;;;;;;4991463;28;20614;-86
2023/01/05 07:17:24;;;;;;;1.57;1.40;;;10.30;97.30;;;;;;4989965;28;20630;-87
2023/01/05 07:19:50;;;;;;;5.60;2.03;;;10.30;97.30;;;;;;4982827;28;20405;-86
2023/01/05 07:22:15;;;;;;;1.70;1.40;;;10.30;97.30;;;;;;4973071;28;20489;-88
2023/01/05 07:24:41;;;;;;;1.30;1.20;;;10.30;97.30;;;;;;4971748;28;20656;-85
2023/01/05 07:27:07;;;;;;;1.40;1.30;;;10.30;97.30;;;;;;4971527;28;20181;-87
2023/01/05 07:29:32;;;;;;;4.23;3.07;;;10.20;97.30;;;;;;4987222;28;20536;-87
2023/01/05 07:31:58;;;;;;;1.27;1.17;;;10.20;97.30;;;;;;4989863;28;20201;-87
2023/01/05 07:34:23;;;;;;;1.10;1.00;;;10.20;97.30;;;;;;4986118;28;20182;-87
2023/01/05 07:36:49;;;;;;;1.10;1.00;;;10.20;97.30;;;;;;4971503;28;20641;-86
2023/01/05 07:39:15;;;;;;;1.70;1.40;;;10.20;97.30;;;;;;4971386;28;20236;-86
2023/01/05 07:41:41;;;;;;;4.23;1.93;;;10.30;97.30;;;;;;4970151;28;20223;-87
2023/01/05 07:44:06;;;;;;;3.93;1.60;;;10.30;97.30;;;;;;4970007;28;20557;-86
2023/01/05 07:46:32;;;;;;;1.47;1.37;;;10.30;97.30;;;;;;4980426;28;20213;-87
2023/01/05 07:48:58;;;;;;;0.93;0.83;;;10.30;97.30;;;;;;4970234;28;20214;-88
2023/01/05 07:51:23;;;;;;;2.80;2.50;;;10.20;97.30;;;;;;4969463;28;20194;-88
2023/01/05 07:53:49;;;;;;;1.50;1.30;;;10.20;97.30;;;;;;4970328;28;20434;-87
2023/01/05 07:56:14;;;;;;;1.30;1.20;;;10.20;97.30;;;;;;4970527;28;20179;-86
2023/01/05 07:58:46;;;;;;;0.77;0.73;;;10.20;97.30;;;;;;4974939;28;20182;-88
2023/01/05 08:01:13;;;;;;;3.77;1.80;;;10.20;97.30;;;;;;4982099;28;20466;-86
2023/01/05 08:03:39;;;;;;;1.20;1.10;;;10.30;97.30;;;;;;4978492;28;20520;-88
2023/01/05 08:06:10;;;;;;;2.10;1.00;;;10.30;97.30;;;;;;4974874;28;20472;-86
2023/01/05 08:08:36;;;;;;;10.83;1.43;;;10.20;97.30;;;;;;4977758;28;20425;-87
2023/01/05 08:11:05;;;;;;;1.10;1.00;;;10.10;97.30;;;;;;4979824;28;20434;-86
2023/01/05 08:16:15;;;;;;;2.43;2.27;;;9.90;97.30;;;;;;4986143;28;20439;-87
2023/01/05 08:18:41;;;;;;;9.17;1.67;;;9.80;97.30;;;;;;4983905;28;20428;-88
2023/01/05 08:21:08;;;;;;;4.57;1.57;;;9.80;97.30;;;;;;4984269;28;20550;-86
2023/01/05 08:23:34;;;;;;;2.20;1.83;;;9.70;97.30;;;;;;4983765;28;20852;-86
2023/01/05 08:26:06;;;;;;;1.60;1.50;;;9.70;97.30;;;;;;4977777;28;20410;-86
2023/01/05 08:28:34;;;;;;;3.57;1.70;;;9.70;97.30;;;;;;4989387;28;20424;-87
2023/01/05 08:31:05;;;;;;;11.73;1.53;;;9.80;97.30;;;;;;4983707;28;20508;-89
2023/01/05 08:33:31;;;;;;;2.17;2.00;;;9.80;97.30;;;;;;4981319;28;20572;-86
2023/01/05 08:35:56;;;;;;;2.13;1.60;;;9.80;97.30;;;;;;4980760;28;20904;-87
2023/01/05 08:38:22;;;;;;;1.43;1.33;;;9.90;97.30;;;;;;4982989;28;20477;-87
2023/01/05 08:40:48;;;;;;;1.40;1.30;;;9.90;97.30;;;;;;4978558;28;20241;-87
2023/01/05 08:43:13;;;;;;;2.57;2.10;;;9.90;97.30;;;;;;4973622;28;20206;-86
2023/01/05 08:45:39;;;;;;;1.30;1.20;;;10.00;97.30;;;;;;4973966;28;20178;-88
2023/01/05 08:48:04;;;;;;;1.50;1.40;;;10.00;97.30;;;;;;4973303;28;20382;-86
2023/01/05 08:50:30;;;;;;;7.80;3.67;;;10.00;97.30;;;;;;4973343;28;20217;-86
2023/01/05 08:52:56;;;;;;;2.90;1.20;;;10.10;97.30;;;;;;4979903;28;20185;-84
2023/01/05 08:55:21;;;;;;;5.07;2.23;;;10.10;97.30;;;;;;4973919;28;20198;-85
2023/01/05 08:57:47;;;;;;;1.00;0.90;;;10.10;97.30;;;;;;4973518;28;20182;-85
2023/01/05 09:00:16;;;;;;;1.20;1.10;;;10.10;97.30;;;;;;4973651;28;20329;-85
2023/01/05 09:02:42;;;;;;;3.23;1.73;;;10.20;97.30;;;;;;4990402;28;20260;-86
2023/01/05 09:05:07;;;;;;;3.63;2.03;;;10.20;97.30;;;;;;4986295;28;20430;-86
2023/01/05 09:07:33;;;;;;;2.50;1.87;;;10.30;97.30;;;;;;4980183;28;20422;-86
2023/01/05 09:09:58;;;;;;;1.00;0.90;;;10.40;97.30;;;;;;4980327;28;20201;-86
2023/01/05 09:12:24;;;;;;;1.20;1.10;;;10.40;97.30;;;;;;4988268;28;20188;-85
2023/01/05 09:14:49;;;;;;;3.20;1.60;;;10.50;97.30;;;;;;4978544;28;20174;-86
2023/01/05 09:17:15;;;;;;;11.03;1.93;;;10.50;97.30;;;;;;4985346;28;20662;-89
2023/01/05 09:19:40;;;;;;;6.10;2.83;;;10.50;97.30;;;;;;4986443;28;20217;-86
2023/01/05 09:22:06;;;;;;;2.70;1.53;;;10.50;97.30;;;;;;4988251;28;20209;-86
2023/01/05 09:24:31;;;;;;;1.30;1.20;;;10.40;97.30;;;;;;4980996;28;20373;-84
2023/01/05 09:26:57;;;;;;;3.63;1.70;;;10.30;97.30;;;;;;4971351;28;20592;-86
2023/01/05 09:29:22;;;;;;;1.10;1.00;;;10.30;97.30;;;;;;4972411;28;20672;-86
2023/01/05 09:31:48;;;;;;;5.10;2.90;;;10.20;97.30;;;;;;4971825;28;20552;-88
2023/01/05 09:34:15;;;;;;;1.20;1.10;;;10.10;97.30;;;;;;4974228;28;20621;-86
2023/01/05 09:36:40;;;;;;;1.30;1.20;;;10.10;97.30;;;;;;4992495;28;20281;-86
2023/01/05 09:39:06;;;;;;;1.20;1.10;;;10.00;97.30;;;;;;4982839;28;20464;-86
2023/01/05 09:41:46;;;;;;;1.00;0.90;;;10.00;97.30;;;;;;4972544;28;20225;-87
2023/01/05 09:44:37;;;;;;;1.90;1.80;;;9.90;97.30;;;;;;4972566;28;20209;-86
2023/01/05 09:47:17;;;;;;;1.57;1.10;;;9.80;97.30;;;;;;4972671;28;20410;-87
2023/01/05 09:49:43;;;;;;;6.40;1.23;;;9.80;97.30;;;;;;4972077;28;20528;-86
2023/01/05 09:52:11;;;;;;;4.33;1.17;;;9.80;97.30;;;;;;4972523;28;20501;-86
2023/01/05 09:54:37;;;;;;;1.10;1.00;;;9.70;97.30;;;;;;4982159;28;20436;-85
2023/01/05 09:57:04;;;;;;;1.20;1.10;;;9.70;97.30;;;;;;4991687;28;20421;-87
2023/01/05 09:59:35;;;;;;;1.40;1.23;;;9.70;97.30;;;;;;4991644;28;20508;-86
2023/01/05 10:02:13;;;;;;;2.53;2.33;;;9.70;97.30;;;;;;5001048;22;20501;-86
2023/01/05 10:04:38;;;;;;;4.53;1.73;;;9.70;97.30;;;;;;4979327;28;20464;-86
2023/01/05 10:07:07;;;;;;;1.53;1.43;;;9.60;97.30;;;;;;4971450;28;20414;-86
2023/01/05 10:09:38;;;;;;;2.93;1.73;;;9.60;97.30;;;;;;4971802;28;20575;-87
2023/01/05 10:15:12;;;;;;;1.20;1.10;;;9.60;97.30;;;;;;4953668;29;20474;-87
2023/01/05 10:17:38;;;;;;;1.93;1.33;;;9.80;97.30;;;;;;4967713;28;20916;-87
2023/01/05 10:20:31;;;;;;;4.00;1.23;;;10.00;97.30;;;;;;4971431;28;20513;-87
2023/01/05 10:23:24;;;;;;;3.07;1.70;;;10.20;97.30;;;;;;4971108;28;20425;-89
2023/01/05 10:26:08;;;;;;;1.50;0.93;;;10.20;97.30;;;;;;4971505;28;20633;-87
2023/01/05 10:28:44;;;;;;;1.23;1.13;;;10.20;97.30;;;;;;4971002;28;20795;-88
2023/01/05 10:31:19;;;;;;;1.40;1.30;;;10.20;97.30;;;;;;4971074;28;20448;-86
2023/01/05 10:34:19;;;;;;;1.50;1.37;;;10.20;97.30;;;;;;4971389;28;20463;-87
2023/01/05 10:37:09;;;;;;;2.73;2.40;;;10.30;97.30;;;;;;4952506;28;20430;-88
2023/01/05 10:40:02;;;;;;;1.80;1.57;;;10.30;97.30;;;;;;4951464;29;20427;-88
2023/01/05 10:42:36;;;;;;;1.10;1.00;;;10.30;97.30;;;;;;4957499;28;20460;-87
2023/01/05 10:45:03;;;;;;;2.13;1.00;;;10.30;97.30;;;;;;4969384;28;20465;-86
2023/01/05 10:47:34;;;;;;;5.90;2.00;;;10.30;97.30;;;;;;4970906;28;20854;-86
2023/01/05 10:50:01;;;;;;;2.70;2.50;;;10.20;97.30;;;;;;4970597;28;20422;-86
2023/01/05 10:52:26;;;;;;;0.90;0.80;;;10.20;97.30;;;;;;4970475;28;20858;-86
2023/01/05 10:55:00;;;;;;;1.03;0.93;;;10.10;97.30;;;;;;4970478;28;20422;-86
2023/01/05 10:57:29;;;;;;;10.07;2.20;;;10.10;97.30;;;;;;4970497;28;20603;-88
2023/01/05 10:59:56;;;;;;;3.60;1.90;;;10.10;97.30;;;;;;4970359;28;20841;-87
2023/01/05 11:02:24;;;;;;;2.17;2.00;;;10.20;97.30;;;;;;4969487;28;20508;-87
2023/01/05 11:04:50;;;;;;;2.00;1.43;;;10.20;97.30;;;;;;4970624;28;20470;-87
2023/01/05 11:07:15;;;;;;;1.10;1.00;;;10.20;97.30;;;;;;4971758;28;20797;-86
2023/01/05 11:09:43;;;;;;;1.23;1.13;;;10.30;97.30;;;;;;4970426;28;20504;-87
2023/01/05 11:12:18;;;;;;;1.43;1.33;;;10.30;97.30;;;;;;4971617;28;20204;-87
2023/01/05 11:14:48;;;;;;;0.90;0.80;;;10.30;97.30;;;;;;4972333;28;20418;-84
2023/01/05 11:17:18;;;;;;;3.97;1.17;;;10.30;97.30;;;;;;4973350;28;20414;-84
2023/01/05 11:19:46;;;;;;;1.07;0.97;;;10.40;97.30;;;;;;4973294;28;20413;-86
2023/01/05 11:22:35;;;;;;;2.73;1.40;;;10.40;97.30;;;;;;4973287;28;20442;-87
2023/01/05 11:25:25;;;;;;;1.30;1.20;;;10.50;97.30;;;;;;4982002;28;20461;-89
2023/01/05 11:28:08;;;;;;;1.30;1.20;;;10.50;97.30;;;;;;4991884;28;20464;-89
2023/01/05 11:30:34;;;;;;;5.77;3.50;;;10.60;97.30;;;;;;4993499;28;20445;-88
2023/01/05 11:33:00;;;;;;;2.90;1.67;;;10.50;97.30;;;;;;4984187;28;20445;-88
2023/01/05 11:35:36;;;;;;;0.87;0.83;;;10.50;97.30;;;;;;4973686;28;20454;-86
2023/01/05 11:38:03;;;;;;;41.00;2.40;;;10.50;97.30;;;;;;4989325;28;20181;-89
2023/01/05 11:40:32;;;;;;;1.00;0.90;;;10.40;97.30;;;;;;4988096;28;20474;-90
2023/01/05 11:42:59;;;;;;;1.20;0.93;;;10.40;97.30;;;;;;4994813;28;20418;-90
2023/01/05 11:45:39;;;;;;;1.80;1.20;;;10.40;97.30;;;;;;4992534;28;20473;-89
2023/01/05 11:48:07;;;;;;;1.70;1.57;;;10.30;97.30;;;;;;4992973;28;20429;-90
2023/01/05 11:50:46;;;;;;;1.03;0.93;;;10.20;97.30;;;;;;4990785;28;20420;-87
2023/01/05 11:53:33;;;;;;;1.40;1.30;;;10.10;97.30;;;;;;4995112;28;20402;-91
2023/01/05 11:56:24;;;;;;;0.90;0.80;;;10.10;97.30;;;;;;5012322;28;20448;-90
2023/01/05 11:58:56;;;;;;;1.00;0.90;;;10.10;97.30;;;;;;4995098;28;20482;-88
2023/01/05 12:01:46;;;;;;;1.03;0.90;;;10.10;97.30;;;;;;4992035;28;20744;-89
2023/01/05 12:05:05;;;;;;;1.10;1.00;;;10.10;97.30;;;;;;4994730;28;20489;-87
2023/01/05 12:07:36;;;;;;;1.50;1.03;;;10.10;97.30;;;;;;4943413;29;20428;-91
2023/01/05 12:10:11;;;;;;;7.47;1.37;;;10.20;97.30;;;;;;4987646;28;20440;-88
2023/01/05 12:13:07;;;;;;;3.47;2.03;;;10.20;97.30;;;;;;4978560;28;20695;-87
2023/01/05 12:15:54;;;;;;;1.90;1.73;;;10.20;97.30;;;;;;4974228;29;20419;-86
2023/01/05 12:18:28;;;;;;;0.97;0.87;;;10.20;97.30;;;;;;4981824;28;20509;-91
2023/01/05 12:21:12;;;;;;;1.00;0.90;;;10.10;97.30;;;;;;4997594;28;20900;-89
2023/01/05 12:23:49;;;;;;;0.97;0.90;;;10.10;97.30;;;;;;4994188;28;20843;-86
2023/01/05 12:26:34;;;;;;;0.70;0.70;;;10.10;97.30;;;;;;4994869;28;20459;-89
2023/01/05 12:29:30;;;;;;;1.37;1.27;;;10.20;97.30;;;;;;4996805;28;20433;-88
2023/01/05 12:32:05;;;;;;;1.17;1.07;;;10.20;97.30;;;;;;4997625;28;20456;-87
2023/01/05 12:35:04;;;;;;;6.10;1.63;;;10.30;97.30;;;;;;4992999;28;20406;-89
2023/01/05 12:38:03;;;;;;;11.53;1.83;;;10.20;97.30;;;;;;4996716;28;20436;-88
2023/01/05 12:40:42;;;;;;;5.27;1.20;;;10.20;97.30;;;;;;4994365;28;20445;-91
2023/01/05 12:43:14;;;;;;;1.00;0.90;;;10.20;97.30;;;;;;4984162;28;20457;-86
2023/01/05 12:45:54;;;;;;;1.10;1.00;;;10.20;97.30;;;;;;4976186;28;20425;-88
2023/01/05 12:48:32;;;;;;;6.33;1.07;;;10.20;97.30;;;;;;4972854;28;20418;-88
2023/01/05 12:51:08;;;;;;;1.27;1.17;;;10.20;97.30;;;;;;4967707;28;20716;-89
2023/01/05 12:53:34;;;;;;;4.40;1.03;;;10.20;97.30;;;;;;4963366;28;20422;-89
2023/01/05 12:56:11;;;;;;;1.23;1.00;;;10.20;97.30;;;;;;4973856;28;20921;-89
2023/01/05 12:58:47;;;;;;;2.17;1.20;;;10.20;97.30;;;;;;4974018;28;20272;-87
2023/01/05 13:01:22;;;;;;;0.90;0.80;;;10.20;97.30;;;;;;4972937;28;20474;-88
2023/01/05 13:03:54;;;;;;;1.00;0.90;;;10.20;97.30;;;;;;4973250;28;20460;-87
2023/01/05 13:06:25;;;;;;;2.20;1.37;;;10.20;97.30;;;;;;4973495;28;20415;-88
2023/01/05 13:09:20;;;;;;;1.47;1.30;;;10.20;97.30;;;;;;4973572;28;20428;-87
2023/01/05 13:11:52;;;;;;;1.30;1.20;;;10.10;97.30;;;;;;4971042;28;20437;-88
2023/01/05 13:14:37;;;;;;;3.90;1.83;;;10.10;97.30;;;;;;4973053;28;20430;-87
2023/01/05 13:17:10;;;;;;;12.20;1.63;;;10.10;97.30;;;;;;4973137;28;20504;-88
2023/01/05 13:19:40;;;;;;;6.93;1.23;;;10.10;97.30;;;;;;4973697;28;20867;-88
2023/01/05 13:22:13;;;;;;;5.70;1.40;;;10.10;97.30;;;;;;4972793;28;20537;-88
2023/01/05 13:24:49;;;;;;;1.40;1.27;;;10.10;97.30;;;;;;4971389;28;20454;-87
2023/01/05 13:27:16;;;;;;;1.20;1.10;;;10.10;97.30;;;;;;4972087;28;20500;-86
2023/01/05 13:29:46;;;;;;;2.77;1.50;;;10.10;97.30;;;;;;4972522;28;20410;-88
2023/01/05 13:32:27;;;;;;;2.10;1.43;;;10.10;97.30;;;;;;4972328;28;20466;-87
2023/01/05 13:35:28;;;;;;;1.37;1.27;;;10.20;97.30;;;;;;4972974;28;20452;-88
2023/01/05 13:38:37;;;;;;;1.00;0.90;;;10.10;97.30;;;;;;4971940;28;20417;-86
2023/01/05 13:41:12;;;;;;;1.30;1.20;;;10.10;97.30;;;;;;4971983;28;20434;-88